Time;durP1;ratioP1;P1;durP2;ratioP2;P2;SDS_P1;SDS_P2;PMS_P1;PMS_P2;Temp;Humidity;BMP_temperature;BMP_pressure;BME280_temperature;BME280_humidity;BME280_pressure;Samples;Min_cycle;Max_cycle;Signal;HPM_P1;HPM_P2
2022/05/26 00:00:11;;;;;;;7.28;2.80;;;;;;;12.16;100.00;98841.09;4402484;32;20050;-78
2022/05/26 00:02:57;;;;;;;5.28;4.32;;;;;;;12.24;100.00;98839.75;4383953;32;20039;-77
2022/05/26 00:05:24;;;;;;;5.00;2.70;;;;;;;12.09;100.00;98840.50;4387616;32;20421;-78
2022/05/26 00:07:51;;;;;;;4.28;2.97;;;;;;;11.85;100.00;98803.13;4388149;32;20384;-78
2022/05/26 00:10:18;;;;;;;3.47;3.17;;;;;;;12.03;100.00;98825.38;4387022;32;20027;-78
2022/05/26 00:12:44;;;;;;;6.07;5.20;;;;;;;11.98;100.00;98818.06;4389723;32;20043;-74
2022/05/26 00:15:12;;;;;;;6.68;4.50;;;;;;;11.70;100.00;98789.59;4399947;32;20043;-77
2022/05/26 00:17:39;;;;;;;12.73;9.32;;;;;;;12.15;100.00;98823.25;4396184;32;20421;-77
2022/05/26 00:20:08;;;;;;;16.08;10.25;;;;;;;12.09;100.00;98825.13;4403145;32;20042;-78
2022/05/26 00:22:35;;;;;;;19.95;11.90;;;;;;;11.99;100.00;98781.91;4403234;32;20068;-77
2022/05/26 00:25:10;;;;;;;23.85;12.45;;;;;;;12.26;100.00;98824.91;4400772;32;20096;-77
2022/05/26 00:27:36;;;;;;;15.35;11.60;;;;;;;12.33;100.00;98835.44;4403197;32;20459;-77
2022/05/26 00:30:03;;;;;;;16.33;11.85;;;;;;;12.11;100.00;98785.19;4402912;32;20043;-76
2022/05/26 00:32:30;;;;;;;35.95;13.23;;;;;;;12.08;100.00;98783.03;4389600;32;20082;-77
2022/05/26 00:34:56;;;;;;;22.37;13.68;;;;;;;12.28;100.00;98830.84;4398744;32;20038;-76
2022/05/26 00:37:23;;;;;;;82.28;14.30;;;;;;;12.21;100.00;98789.00;4403532;32;20043;-77
2022/05/26 00:39:49;;;;;;;91.63;15.80;;;;;;;12.45;100.00;98816.31;4402867;32;20206;-76
2022/05/26 00:42:16;;;;;;;109.12;15.07;;;;;;;11.96;100.00;98788.63;4388932;32;20072;-75
2022/05/26 00:44:42;;;;;;;104.87;16.12;;;;;;;11.96;100.00;98783.25;4401750;32;20085;-77
2022/05/26 00:47:15;;;;;;;64.78;16.65;;;;;;;12.12;100.00;98781.41;4399198;32;20064;-77
2022/05/26 00:49:59;;;;;;;57.38;17.17;;;;;;;12.39;100.00;98817.38;4401358;32;20047;-76
2022/05/26 00:53:01;;;;;;;87.25;17.45;;;;;;;12.52;100.00;98823.09;4389333;32;20057;-74
2022/05/26 00:55:40;;;;;;;55.42;14.25;;;;;;;12.03;100.00;98777.62;4340611;33;20036;-76
2022/05/26 00:58:14;;;;;;;32.95;13.85;;;;;;;12.30;100.00;98826.00;4406595;32;20054;-76
2022/05/26 01:00:41;;;;;;;32.10;15.88;;;;;;;12.34;100.00;98820.88;4417363;32;20076;-77
2022/05/26 01:03:29;;;;;;;30.30;15.88;;;;;;;12.13;100.00;98810.03;4418233;32;20038;-76
2022/05/26 01:06:12;;;;;;;40.53;14.35;;;;;;;12.24;100.00;98805.47;4410901;32;20034;-78
2022/05/26 01:08:59;;;;;;;17.45;12.57;;;;;;;12.38;100.00;98813.06;4402963;32;20039;-78
2022/05/26 01:11:36;;;;;;;36.70;13.50;;;;;;;12.23;100.00;98797.66;4402516;32;20058;-77
2022/05/26 01:14:11;;;;;;;61.33;13.60;;;;;;;12.12;100.00;98792.19;4401962;32;20043;-77
2022/05/26 01:16:40;;;;;;;147.90;17.25;;;;;;;12.16;100.00;98803.31;4387351;32;20023;-76
2022/05/26 01:19:31;;;;;;;91.53;15.23;;;;;;;11.87;100.00;98768.63;4400250;32;20046;-77
2022/05/26 01:22:18;;;;;;;73.23;16.27;;;;;;;12.16;100.00;98808.69;4401854;32;20420;-77
2022/05/26 01:25:22;;;;;;;83.22;16.17;;;;;;;12.09;100.00;98764.94;4385777;32;20043;-77
2022/05/26 01:28:14;;;;;;;37.53;15.70;;;;;;;12.33;100.00;98797.66;4385823;32;20043;-77
2022/05/26 01:30:51;;;;;;;18.50;12.68;;;;;;;12.43;100.00;98796.87;4380501;32;20061;-77
2022/05/26 01:33:24;;;;;;;31.00;14.60;;;;;;;12.11;100.00;98792.47;4409376;32;20042;-75
2022/05/26 01:35:59;;;;;;;;;;;;;;;12.21;100.00;98799.81;4402690;32;20054;-77
2022/05/26 01:38:38;;;;;;;23.65;12.45;;;;;;;12.43;100.00;98802.25;4401569;32;20280;-77
2022/05/26 01:41:17;;;;;;;18.85;12.07;;;;;;;12.21;100.00;98799.81;4387944;32;20069;-77
2022/05/26 01:44:04;;;;;;;23.70;13.75;;;;;;;12.30;100.00;98792.78;4400244;32;20039;-78
2022/05/26 01:46:50;;;;;;;30.73;11.73;;;;;;;12.41;100.00;98750.44;4398862;32;20104;-76
2022/05/26 01:49:40;;;;;;;24.23;12.30;;;;;;;12.38;100.00;98794.16;4401229;32;20072;-78
2022/05/26 01:52:17;;;;;;;26.23;12.50;;;;;;;12.44;100.00;98795.78;4396038;32;20132;-77
2022/05/26 01:55:02;;;;;;;24.98;12.32;;;;;;;12.22;100.00;98772.56;4401487;32;20039;-77
2022/05/26 01:57:38;;;;;;;16.12;11.93;;;;;;;12.40;100.00;98808.19;4399016;32;20364;-77
2022/05/26 02:00:09;;;;;;;21.83;12.45;;;;;;;12.40;100.00;98814.44;4401379;32;20076;-76
2022/05/26 02:02:44;;;;;;;23.95;11.93;;;;;;;12.37;100.00;98814.16;4388637;32;20049;-76
2022/05/26 02:05:15;;;;;;;13.15;9.57;;;;;;;12.02;100.00;98769.78;4386511;32;20030;-75
2022/05/26 02:07:53;;;;;;;17.85;12.07;;;;;;;12.10;100.00;98809.75;4388066;32;20796;-76
2022/05/26 02:10:29;;;;;;;16.98;12.10;;;;;;;12.29;100.00;98808.19;4400266;32;20193;-76
2022/05/26 02:13:03;;;;;;;14.50;11.38;;;;;;;12.24;100.00;98794.69;4401601;32;20379;-76
2022/05/26 02:15:49;;;;;;;15.95;11.52;;;;;;;12.05;100.00;98763.88;4401777;32;20116;-76
2022/05/26 02:18:25;;;;;;;17.58;11.85;;;;;;;12.25;100.00;98804.37;4400764;32;20061;-76
2022/05/26 02:20:59;;;;;;;15.57;11.12;;;;;;;12.20;100.00;98792.78;4400259;32;20120;-77
2022/05/26 02:23:34;;;;;;;21.40;12.90;;;;;;;12.18;100.00;98809.22;4401636;32;20042;-76
2022/05/26 02:26:03;;;;;;;20.48;12.55;;;;;;;12.30;100.00;98819.78;4388327;32;20027;-76
2022/05/26 02:31:20;;;;;;;23.50;13.75;;;;;;;11.98;100.00;98764.09;4399284;32;20039;-77
2022/05/26 02:33:47;;;;;;;17.40;12.25;;;;;;;12.27;100.00;98804.94;4408122;32;20038;-77
2022/05/26 02:36:15;;;;;;;20.02;11.68;;;;;;;11.79;100.00;98769.94;4393326;32;20043;-76
2022/05/26 02:38:41;;;;;;;17.50;9.77;;;;;;;11.97;100.00;98806.47;4401565;32;20407;-77
2022/05/26 02:41:07;;;;;;;20.05;12.82;;;;;;;11.57;100.00;98764.72;4403144;32;20039;-76
2022/05/26 02:43:34;;;;;;;14.05;10.43;;;;;;;11.93;100.00;98764.88;4404690;32;20064;-77
2022/05/26 02:46:01;;;;;;;15.80;11.35;;;;;;;12.18;100.00;98790.34;4404406;32;20060;-77
2022/05/26 02:48:48;;;;;;;14.35;11.35;;;;;;;11.89;100.00;98766.47;4401977;32;20081;-75
2022/05/26 02:51:19;;;;;;;14.38;11.02;;;;;;;12.18;100.00;98801.12;4391063;32;20068;-77
2022/05/26 02:53:54;;;;;;;13.25;9.70;;;;;;;12.18;100.00;98793.03;4403598;32;20043;-77
2022/05/26 02:57:00;;;;;;;13.43;10.43;;;;;;;12.22;100.00;98801.41;4402977;32;20069;-76
2022/05/26 02:59:43;;;;;;;19.33;12.10;;;;;;;12.24;100.00;98800.06;4403501;32;20039;-73
2022/05/26 03:02:22;;;;;;;13.88;9.82;;;;;;;12.18;100.00;98774.94;4404530;32;20034;-76
2022/05/26 03:05:12;;;;;;;13.98;10.57;;;;;;;11.53;100.00;98731.25;4403925;32;20375;-77
2022/05/26 03:07:43;;;;;;;11.52;8.57;;;;;;;12.10;100.00;98798.97;4404387;32;20038;-77
2022/05/26 03:10:11;;;;;;;17.02;9.55;;;;;;;12.02;100.00;98799.47;4390749;32;20078;-77
2022/05/26 03:12:37;;;;;;;13.62;9.73;;;;;;;12.07;100.00;98802.19;4390461;32;20026;-74
2022/05/26 03:15:07;;;;;;;14.30;9.00;;;;;;;11.96;100.00;98794.03;4401219;32;20446;-76
2022/05/26 03:17:34;;;;;;;13.55;9.43;;;;;;;11.93;100.00;98802.66;4390039;32;20055;-77
2022/05/26 03:20:01;;;;;;;15.55;8.85;;;;;;;12.01;100.00;98805.94;4388725;32;20060;-77
2022/05/26 03:22:27;;;;;;;11.55;9.13;;;;;;;11.48;100.00;98755.50;4402163;32;20119;-76
2022/05/26 03:24:54;;;;;;;9.73;8.32;;;;;;;11.55;100.00;98766.06;4402099;32;20047;-78
2022/05/26 03:27:20;;;;;;;13.07;9.15;;;;;;;11.55;100.00;98791.16;4403710;32;20128;-78
2022/05/26 03:29:47;;;;;;;13.52;8.95;;;;;;;11.82;100.00;98798.28;4403852;32;20068;-79
2022/05/26 03:32:13;;;;;;;16.25;8.77;;;;;;;11.58;100.00;98771.75;4404904;32;20101;-75
2022/05/26 03:43:04;;;;;;;;;;;;;;;11.87;100.00;98814.50;4405193;32;20050;-82
2022/05/26 03:45:33;;;;;;;8.23;6.68;;;;;;;12.07;100.00;98815.69;4392160;32;19981;-81
2022/05/26 03:48:00;;;;;;;10.45;7.60;;;;;;;12.10;100.00;98821.34;4389926;32;20144;-75
2022/05/26 03:50:27;;;;;;;13.20;8.45;;;;;;;12.02;100.00;98812.97;4388644;32;20034;-81
2022/05/26 03:52:54;;;;;;;10.73;7.65;;;;;;;12.14;100.00;98810.84;4402746;32;20043;-81
2022/05/26 03:55:22;;;;;;;8.73;6.95;;;;;;;12.01;100.00;98803.25;4403459;32;20422;-82
2022/05/26 03:57:49;;;;;;;9.52;7.72;;;;;;;12.25;100.00;98817.88;4403704;32;20046;-82
2022/05/26 04:00:18;;;;;;;7.62;6.80;;;;;;;12.12;100.00;98813.00;4405162;32;20057;-82
2022/05/26 04:02:45;;;;;;;7.28;6.57;;;;;;;12.22;100.00;98818.44;4405757;32;20072;-81
2022/05/26 04:05:12;;;;;;;14.30;7.93;;;;;;;11.83;100.00;98805.31;4389501;32;20035;-82
2022/05/26 04:07:38;;;;;;;10.10;7.10;;;;;;;12.07;100.00;98800.28;4402739;32;20027;-82
2022/05/26 04:10:07;;;;;;;16.60;9.00;;;;;;;11.99;100.00;98823.19;4387642;32;20058;-83
2022/05/26 04:12:34;;;;;;;9.05;6.85;;;;;;;12.22;100.00;98813.03;4403141;32;20068;-80
2022/05/26 04:15:00;;;;;;;9.70;7.57;;;;;;;12.18;100.00;98825.44;4401876;32;20174;-79
2022/05/26 04:17:26;;;;;;;9.10;6.40;;;;;;;11.83;100.00;98783.72;4402917;32;20080;-78
2022/05/26 04:19:53;;;;;;;7.90;6.28;;;;;;;12.00;100.00;98805.13;4403984;32;20060;-75
2022/05/26 04:22:21;;;;;;;13.85;6.75;;;;;;;11.88;100.00;98781.03;4383281;32;20042;-81
2022/05/26 04:24:50;;;;;;;11.12;7.03;;;;;;;12.10;100.00;98810.56;4411742;32;20064;-84
2022/05/26 04:27:19;;;;;;;9.68;6.75;;;;;;;12.18;100.00;98776.84;4397916;32;20451;-83
2022/05/26 04:29:46;;;;;;;7.40;6.68;;;;;;;12.20;100.00;98782.78;4387324;32;20057;-75
2022/05/26 04:32:13;;;;;;;10.23;6.28;;;;;;;12.23;100.00;98803.84;4387287;32;20064;-80
2022/05/26 04:34:40;;;;;;;11.93;5.80;;;;;;;12.33;100.00;98803.87;4402156;32;20495;-80
2022/05/26 04:37:07;;;;;;;6.97;6.22;;;;;;;11.94;100.00;98784.59;4402703;32;20035;-83
2022/05/26 04:39:33;;;;;;;7.43;6.25;;;;;;;12.46;100.00;98817.94;4403131;32;20047;-83
2022/05/26 04:42:03;;;;;;;21.00;6.45;;;;;;;12.19;100.00;98781.19;4401029;32;20077;-75
2022/05/26 04:44:33;;;;;;;8.13;5.70;;;;;;;12.42;100.00;98823.06;4403275;32;20078;-84
2022/05/26 04:47:00;;;;;;;7.65;5.78;;;;;;;12.51;100.00;98809.88;4402959;32;20099;-80
2022/05/26 04:49:27;;;;;;;10.93;5.97;;;;;;;12.34;100.00;98789.28;4402188;32;20072;-81
2022/05/26 04:51:53;;;;;;;9.70;7.45;;;;;;;12.65;100.00;98794.75;4401176;32;20068;-76
2022/05/26 04:54:20;;;;;;;6.70;6.10;;;;;;;12.84;100.00;98818.53;4388780;32;20062;-81
2022/05/26 04:56:47;;;;;;;9.38;6.43;;;;;;;12.72;100.00;98789.87;4402710;32;20038;-80
2022/05/26 04:59:13;;;;;;;16.00;5.87;;;;;;;12.68;100.00;98782.59;4402460;32;20455;-81
2022/05/26 05:01:41;;;;;;;8.23;6.18;;;;;;;12.76;100.00;98810.97;4402193;32;20442;-79
2022/05/26 05:04:08;;;;;;;12.25;6.37;;;;;;;12.98;100.00;98811.50;4400733;32;20065;-79
2022/05/26 05:06:34;;;;;;;9.35;6.53;;;;;;;12.86;100.00;98832.56;4403095;32;20043;-81
2022/05/26 05:09:01;;;;;;;6.87;6.20;;;;;;;12.81;100.00;98808.25;4406633;32;20060;-80
2022/05/26 05:11:28;;;;;;;12.30;6.10;;;;;;;12.90;100.00;98839.06;4410874;32;20113;-80
2022/05/26 05:13:55;;;;;;;7.53;6.43;;;;;;;12.85;100.00;98809.34;4395825;32;20094;-81
2022/05/26 05:16:33;;;;;;;12.07;5.70;;;;;;;13.14;100.00;98844.75;4396128;32;20222;-79
2022/05/26 05:19:00;;;;;;;10.60;5.78;;;;;;;12.86;100.00;98819.87;4399434;32;20138;-80
2022/05/26 05:21:53;;;;;;;8.32;6.50;;;;;;;13.09;100.00;98848.25;4389348;32;20048;-78
2022/05/26 05:24:34;;;;;;;7.30;5.72;;;;;;;13.39;100.00;98846.66;4387983;32;20038;-81
2022/05/26 05:27:06;;;;;;;7.18;5.97;;;;;;;13.37;100.00;98805.56;4401891;32;20405;-79
2022/05/26 05:29:37;;;;;;;9.30;7.15;;;;;;;13.40;100.00;98805.00;4399965;32;20065;-79
2022/05/26 05:32:31;;;;;;;7.65;5.82;;;;;;;13.51;100.00;98821.19;4401910;32;20039;-80
2022/05/26 05:35:08;;;;;;;9.13;5.30;;;;;;;14.01;100.00;98846.50;4397886;32;20043;-79
2022/05/26 05:37:35;;;;;;;8.63;5.72;;;;;;;13.94;100.00;98813.50;4388662;32;20042;-81
2022/05/26 05:40:03;;;;;;;9.68;6.20;;;;;;;14.29;100.00;98842.28;4387891;32;20047;-79
2022/05/26 05:42:29;;;;;;;8.68;6.65;;;;;;;14.30;100.00;98848.53;4401915;32;20104;-78
2022/05/26 05:44:57;;;;;;;7.97;4.97;;;;;;;14.26;100.00;98837.44;4400824;32;20528;-80
2022/05/26 05:47:30;;;;;;;6.00;5.40;;;;;;;13.88;100.00;98814.59;4388958;32;20070;-77
2022/05/26 05:49:57;;;;;;;8.40;4.82;;;;;;;14.41;100.00;98849.28;4404572;32;20039;-76
2022/05/26 05:52:24;;;;;;;11.45;5.80;;;;;;;14.46;100.00;98852.78;4400390;32;20027;-76
2022/05/26 05:54:51;;;;;;;8.65;4.75;;;;;;;14.47;100.00;98854.41;4399345;32;20068;-77
2022/05/26 05:57:17;;;;;;;9.55;4.57;;;;;;;14.53;100.00;98852.47;4400699;32;20425;-79
2022/05/26 05:59:45;;;;;;;4.95;4.18;;;;;;;14.36;100.00;98858.25;4401049;32;20057;-76
2022/05/26 06:02:13;;;;;;;7.70;4.62;;;;;;;14.49;100.00;98846.78;4395192;32;20072;-75
2022/05/26 06:04:42;;;;;;;6.32;5.25;;;;;;;14.82;100.00;98849.87;4396283;32;20111;-74
2022/05/26 06:07:16;;;;;;;7.05;4.35;;;;;;;14.53;100.00;98801.81;4398785;32;20046;-76
2022/05/26 06:09:45;;;;;;;7.18;4.62;;;;;;;14.65;100.00;98858.37;4399468;32;20404;-75
2022/05/26 06:12:12;;;;;;;6.82;5.28;;;;;;;14.57;100.00;98863.53;4398363;32;20055;-74
2022/05/26 06:14:40;;;;;;;7.53;4.35;;;;;;;14.77;100.00;98858.03;4397451;32;20073;-76
2022/05/26 06:17:09;;;;;;;8.10;4.28;;;;;;;14.74;100.00;98847.75;4385418;32;20055;-75
2022/05/26 06:19:44;;;;;;;10.50;5.28;;;;;;;14.83;100.00;98859.63;4398754;32;20060;-76
2022/05/26 06:22:20;;;;;;;7.00;5.72;;;;;;;14.80;100.00;98862.09;4400263;32;20046;-75
2022/05/26 06:24:48;;;;;;;5.03;4.53;;;;;;;14.66;100.00;98829.38;4399262;32;20051;-76
2022/05/26 06:30:05;;;;;;;6.10;4.85;;;;;;;15.18;100.00;98846.88;4384127;32;20038;-75
2022/05/26 06:38:17;;;;;;;4.80;4.35;;;;;;;15.26;100.00;98840.03;4394262;32;20379;-75
2022/05/26 06:40:45;;;;;;;6.40;3.47;;;;;;;15.49;100.00;98841.16;4400290;32;20042;-75
2022/05/26 06:43:14;;;;;;;4.80;3.60;;;;;;;15.36;100.00;98817.41;4541555;27;20076;-74
2022/05/26 06:45:47;;;;;;;3.50;3.20;;;;;;;15.13;100.00;98833.38;4389654;32;20047;-73
2022/05/26 06:48:15;;;;;;;3.20;2.90;;;;;;;15.20;100.00;98822.97;4399769;32;20031;-76
2022/05/26 06:50:43;;;;;;;6.50;3.58;;;;;;;15.59;100.00;98851.91;4400489;32;20406;-76
2022/05/26 06:53:11;;;;;;;3.92;3.55;;;;;;;15.79;100.00;98844.69;4399486;32;20028;-75
2022/05/26 06:55:40;;;;;;;3.72;3.00;;;;;;;15.81;100.00;98842.47;4400683;32;20092;-75
2022/05/26 06:58:09;;;;;;;5.07;2.90;;;;;;;15.66;100.00;98818.22;4398414;32;20039;-75
2022/05/26 07:00:38;;;;;;;3.55;2.58;;;;;;;16.04;100.00;98842.78;4400765;32;20868;-76
2022/05/26 07:03:05;;;;;;;9.40;2.17;;;;;;;16.02;100.00;98837.66;4399884;32;20348;-75
2022/05/26 07:05:35;;;;;;;2.85;2.10;;;;;;;16.18;100.00;98843.69;4555955;27;20378;-76
2022/05/26 07:08:03;;;;;;;7.70;3.40;;;;;;;16.41;100.00;98828.44;4407148;32;20329;-76
2022/05/26 07:10:33;;;;;;;7.12;2.28;;;;;;;16.17;100.00;98828.47;4398805;32;20163;-75
2022/05/26 07:13:02;;;;;;;3.50;2.50;;;;;;;16.32;100.00;98819.31;4398768;32;20086;-76
2022/05/26 07:15:28;;;;;;;4.20;2.05;;;;;;;16.47;100.00;98829.97;4400637;32;20343;-77
2022/05/26 07:17:55;;;;;;;2.33;2.12;;;;;;;16.07;100.00;98802.28;4400349;32;20061;-77
2022/05/26 07:20:22;;;;;;;4.97;2.35;;;;;;;16.42;100.00;98821.06;4400693;32;20363;-77
2022/05/26 07:22:49;;;;;;;2.12;2.03;;;;;;;16.58;100.00;98822.50;4396304;32;20038;-76
2022/05/26 07:25:16;;;;;;;13.23;3.60;;;;;;;16.64;100.00;98831.38;4401200;32;20065;-77
2022/05/26 07:27:43;;;;;;;4.78;2.33;;;;;;;16.91;100.00;98822.56;4402113;32;20055;-76
2022/05/26 07:30:10;;;;;;;3.50;1.77;;;;;;;16.78;100.00;98828.72;4402042;32;20043;-79
2022/05/26 07:32:37;;;;;;;5.07;2.20;;;;;;;16.42;100.00;98796.63;4401553;32;20069;-79
2022/05/26 07:35:05;;;;;;;5.60;2.40;;;;;;;16.76;100.00;98828.22;4400889;32;20035;-78
2022/05/26 07:43:08;;;;;;;5.00;2.50;;;;;;;17.02;100.00;98829.47;4402153;32;20038;-73
2022/05/26 07:45:36;;;;;;;6.35;2.30;;;;;;;16.87;100.00;98803.31;4388794;32;20047;-73
2022/05/26 07:48:04;;;;;;;3.83;2.12;;;;;;;16.99;100.00;98794.69;4416885;32;20056;-73
2022/05/26 07:50:31;;;;;;;4.60;2.05;;;;;;;17.10;100.00;98832.59;4406030;32;20371;-72
2022/05/26 07:52:58;;;;;;;1.90;1.80;;;;;;;17.35;100.00;98834.09;4417206;32;20046;-74
2022/05/26 07:55:26;;;;;;;4.82;3.00;;;;;;;17.46;100.00;98840.94;4416692;32;20043;-74
2022/05/26 07:57:53;;;;;;;2.90;2.40;;;;;;;17.38;100.00;98838.94;4417612;32;20418;-74
2022/05/26 08:00:20;;;;;;;2.42;2.25;;;;;;;17.57;100.00;98825.25;4403971;32;20027;-74
2022/05/26 08:02:46;;;;;;;5.43;2.50;;;;;;;17.42;100.00;98835.31;4414642;32;20112;-74
2022/05/26 08:05:13;;;;;;;3.58;2.45;;;;;;;17.42;100.00;98796.37;4395716;32;20076;-74
2022/05/26 08:07:41;;;;;;;3.75;2.05;;;;;;;17.54;100.00;98820.41;4400876;32;20043;-74
2022/05/26 08:10:08;;;;;;;4.35;2.42;;;;;;;17.92;100.00;98826.50;4402255;32;20043;-73
2022/05/26 08:12:34;;;;;;;2.50;2.17;;;;;;;17.62;100.00;98822.44;4402228;32;20043;-74
2022/05/26 08:15:01;;;;;;;8.77;2.20;;;;;;;17.49;100.00;98806.91;4388607;32;20057;-74
2022/05/26 08:17:27;;;;;;;2.40;2.20;;;;;;;17.42;100.00;98827.16;4402049;32;20060;-74
2022/05/26 08:19:54;;;;;;;2.60;2.40;;;;;;;17.41;100.00;98817.34;4399935;32;20069;-74
2022/05/26 08:22:20;;;;;;;3.35;2.37;;;;;;;17.36;100.00;98814.72;4401519;32;20043;-74
2022/05/26 08:24:55;;;;;;;11.98;3.35;;;;;;;17.40;100.00;98818.44;4399947;32;20064;-74
2022/05/26 08:27:22;;;;;;;6.32;2.60;;;;;;;17.56;100.00;98823.62;4401669;32;20082;-74
2022/05/26 08:29:49;;;;;;;14.20;2.87;;;;;;;17.43;100.00;98826.03;4401950;32;20042;-75
2022/05/26 08:32:17;;;;;;;4.25;2.60;;;;;;;17.59;100.00;98817.56;4401845;32;20081;-75
2022/05/26 08:34:44;;;;;;;5.20;2.35;;;;;;;17.60;100.00;98822.72;4401281;32;20061;-74
2022/05/26 08:37:15;;;;;;;3.47;2.70;;;;;;;17.15;100.00;98786.25;4392031;32;20031;-75
2022/05/26 08:39:42;;;;;;;4.37;2.35;;;;;;;17.77;100.00;98819.41;4413761;32;20038;-75
2022/05/26 08:42:33;;;;;;;4.68;2.55;;;;;;;17.46;100.00;98788.44;4414547;32;20042;-75
2022/05/26 08:47:45;;;;;;;8.30;2.17;;;;;;;17.32;100.00;98802.81;4415386;32;20043;-75
2022/05/26 08:50:15;;;;;;;7.03;2.35;;;;;;;17.56;100.00;98824.41;4419639;32;20034;-74
2022/05/26 08:52:50;;;;;;;3.55;2.03;;;;;;;17.88;100.00;98819.22;4406988;32;20832;-74
2022/05/26 08:55:27;;;;;;;9.68;2.37;;;;;;;17.81;100.00;98816.88;4409332;32;20524;-75
2022/05/26 08:58:06;;;;;;;2.37;1.58;;;;;;;17.99;100.00;98830.72;4423019;32;20378;-75
2022/05/26 09:00:37;;;;;;;3.33;1.65;;;;;;;17.52;100.00;98800.81;4420498;32;20046;-75
2022/05/26 09:03:25;;;;;;;4.47;1.40;;;;;;;17.99;100.00;98831.53;4423099;32;20195;-74
2022/05/26 09:06:01;;;;;;;1.40;1.30;;;;;;;17.70;100.00;98802.66;4406808;32;20072;-75
2022/05/26 09:14:07;;;;;;;0.98;0.98;;;;;;;18.10;100.00;98783.91;4399173;32;20042;-75
2022/05/26 09:16:41;;;;;;;4.05;1.60;;;;;;;17.79;100.00;98817.19;4399709;32;20080;-75
2022/05/26 09:19:12;;;;;;;1.55;1.30;;;;;;;18.23;100.00;98841.41;4401118;32;20055;-75
2022/05/26 09:21:40;;;;;;;2.47;0.90;;;;;;;18.23;100.00;98841.41;4385605;32;20043;-74
2022/05/26 09:24:30;;;;;;;3.50;1.92;;;;;;;18.44;100.00;98842.56;4387611;32;20096;-74
2022/05/26 09:26:59;;;;;;;2.05;0.90;;;;;;;18.66;100.00;98843.72;4399525;32;20065;-74
2022/05/26 09:29:37;;;;;;;1.25;0.98;;;;;;;18.35;100.00;98800.81;4400211;32;20035;-74
2022/05/26 09:32:06;;;;;;;1.25;1.17;;;;;;;18.38;100.00;98832.91;4400363;32;20084;-75
2022/05/26 09:34:34;;;;;;;8.65;1.20;;;;;;;18.80;100.00;98846.41;4400321;32;20047;-75
2022/05/26 09:37:07;;;;;;;1.90;0.90;;;;;;;19.01;100.00;98839.38;4399113;32;20446;-74
2022/05/26 09:39:38;;;;;;;3.60;1.20;;;;;;;19.11;100.00;98832.84;4385157;32;20027;-75
2022/05/26 09:42:17;;;;;;;0.85;0.85;;;;;;;18.94;100.00;98821.81;4398424;32;20052;-75
2022/05/26 09:44:44;;;;;;;1.00;0.93;;;;;;;19.35;100.00;98831.72;4400707;32;20054;-74
2022/05/26 09:47:32;;;;;;;1.12;1.00;;;;;;;18.68;100.00;98803.31;4400870;32;20039;-73
2022/05/26 09:50:02;;;;;;;1.10;1.10;;;;;;;18.77;100.00;98828.75;4399586;32;20465;-73
2022/05/26 09:52:46;;;;;;;2.83;0.95;;;;;;;18.77;100.00;98845.09;4385160;32;20049;-74
2022/05/26 09:55:28;;;;;;;5.43;1.08;;;;;;;18.74;100.00;98844.94;4400383;32;20034;-73
2022/05/26 09:58:07;;;;;;;1.12;1.10;;;;;;;19.28;100.00;98831.38;4400423;32;20043;-73
2022/05/26 10:00:47;;;;;;;1.33;1.15;;;;;;;18.88;100.00;98824.69;4399044;32;20076;-75
2022/05/26 10:03:24;;;;;;;0.88;0.77;;;;;;;18.84;100.00;98872.81;4380477;32;20080;-73
2022/05/26 10:06:27;;;;;;;0.93;0.93;;;;;;;18.31;100.00;98822.41;4399852;32;20062;-74
2022/05/26 10:09:06;;;;;;;2.30;1.00;;;;;;;18.59;100.00;98838.72;4397387;32;20095;-75
2022/05/26 10:11:56;;;;;;;1.00;0.80;;;;;;;18.59;100.00;98838.72;4400161;32;20068;-74
2022/05/26 10:14:28;;;;;;;2.37;1.27;;;;;;;18.54;100.00;98819.75;4398092;32;20065;-75
2022/05/26 10:17:06;;;;;;;2.65;1.10;;;;;;;18.25;100.00;98817.38;4400138;32;20072;-74
2022/05/26 10:19:55;;;;;;;0.98;0.98;;;;;;;18.32;100.00;98801.44;4399648;32;20549;-73
2022/05/26 10:22:37;;;;;;;2.17;1.98;;;;;;;18.98;100.00;98841.94;4398802;32;20170;-75
2022/05/26 10:25:07;;;;;;;3.17;1.10;;;;;;;19.12;100.00;98829.03;4386687;32;20061;-73
2022/05/26 10:27:52;;;;;;;1.15;0.90;;;;;;;19.15;100.00;98887.66;4386650;32;20039;-74
2022/05/26 10:30:38;;;;;;;0.77;0.77;;;;;;;19.07;100.00;98831.88;4399884;32;20043;-75
2022/05/26 10:33:37;;;;;;;2.83;1.20;;;;;;;18.85;100.00;98860.75;4386591;32;20086;-74
2022/05/26 10:36:28;;;;;;;1.70;0.98;;;;;;;18.85;100.00;98871.66;4359215;32;20043;-74
2022/05/26 10:39:44;;;;;;;2.58;0.77;;;;;;;18.80;100.00;98866.31;4400084;32;20051;-74
2022/05/26 10:42:23;;;;;;;2.20;0.90;;;;;;;18.85;100.00;98841.66;4335627;33;20127;-74
2022/05/26 10:45:08;;;;;;;2.53;0.88;;;;;;;19.03;100.00;98828.16;4338785;33;20111;-74
2022/05/26 10:47:39;;;;;;;4.12;1.10;;;;;;;19.23;100.00;98835.84;4326407;33;20066;-75
2022/05/26 10:50:26;;;;;;;1.35;0.80;;;;;;;19.57;100.00;98848.06;4323590;33;20080;-75
2022/05/26 10:53:03;;;;;;;6.62;0.95;;;;;;;19.80;100.00;98839.84;4345217;33;20539;-75
2022/05/26 10:55:37;;;;;;;2.17;1.35;;;;;;;19.45;100.00;98826.00;4353415;33;20044;-75
2022/05/26 10:58:39;;;;;;;1.58;1.35;;;;;;;20.05;100.00;98842.97;4352590;32;20073;-74
2022/05/26 11:01:16;;;;;;;10.43;3.03;;;;;;;19.39;100.00;98844.44;4331510;32;20117;-73
2022/05/26 11:03:51;;;;;;;7.20;1.12;;;;;;;18.84;100.00;98834.63;4356018;32;20061;-73
2022/05/26 11:06:26;;;;;;;2.58;0.98;;;;;;;19.31;100.00;98891.59;4354003;32;20056;-74
2022/05/26 11:09:30;;;;;;;1.50;1.08;;;;;;;20.00;100.00;98851.34;4354579;32;20043;-74
2022/05/26 11:12:00;;;;;;;2.08;1.00;;;;;;;20.11;99.39;98875.31;4346940;32;20426;-74
2022/05/26 11:17:52;;;;;;;0.90;0.90;;;;;;;19.65;100.00;98875.75;4401212;32;20430;-74
2022/05/26 11:20:24;;;;;;;0.98;0.88;;;;;;;19.70;100.00;98892.00;4401024;32;20064;-74
2022/05/26 11:22:53;;;;;;;1.95;1.00;;;;;;;19.60;100.00;98857.56;4388783;32;20038;-74
2022/05/26 11:25:32;;;;;;;6.78;1.48;;;;;;;19.56;100.00;98873.78;4402867;32;20035;-74
2022/05/26 11:28:07;;;;;;;3.85;0.98;;;;;;;19.53;100.00;98863.47;4401083;32;20446;-75
2022/05/26 11:36:52;;;;;;;3.85;1.80;;;;;;;19.62;100.00;98868.16;4418457;32;20030;-75
2022/05/26 11:39:32;;;;;;;2.92;1.20;;;;;;;18.87;100.00;98872.19;4414899;32;20056;-75
2022/05/26 11:42:02;;;;;;;3.17;1.17;;;;;;;18.73;100.00;98855.03;4406241;32;20081;-74
2022/05/26 11:44:42;;;;;;;5.00;1.00;;;;;;;19.22;100.00;98904.37;4418374;32;20064;-74
2022/05/26 11:47:31;;;;;;;1.15;1.02;;;;;;;19.18;100.00;98871.44;4417347;32;20789;-74
2022/05/26 11:50:19;;;;;;;0.98;0.93;;;;;;;18.80;100.00;98881.88;4416662;32;20050;-75
2022/05/26 11:52:46;;;;;;;8.55;1.20;;;;;;;19.05;100.00;98866.84;4416748;32;20056;-74
2022/05/26 11:55:27;;;;;;;3.58;1.15;;;;;;;19.31;100.00;98872.50;4409453;32;20038;-74
2022/05/26 11:57:54;;;;;;;5.82;1.20;;;;;;;18.79;100.00;98861.97;4396907;32;20035;-73
2022/05/26 12:00:21;;;;;;;9.27;1.45;;;;;;;18.66;100.00;98832.81;4416689;32;21464;-74
2022/05/26 12:03:20;;;;;;;4.07;1.33;;;;;;;18.96;100.00;98874.19;4405954;32;20039;-73
2022/05/26 12:06:09;;;;;;;3.47;1.15;;;;;;;18.59;100.00;98859.69;4417677;32;20364;-74
2022/05/26 12:08:53;;;;;;;1.30;1.20;;;;;;;18.45;100.00;98860.53;4423442;32;20111;-74
2022/05/26 12:11:46;;;;;;;1.58;1.50;;;;;;;18.36;100.00;98872.47;4424610;32;20046;-73
2022/05/26 12:14:22;;;;;;;1.33;1.23;;;;;;;19.02;100.00;98856.56;4404477;32;20188;-74
2022/05/26 12:16:49;;;;;;;1.33;1.20;;;;;;;19.88;100.00;98847.28;4425144;32;20034;-74
2022/05/26 12:19:40;;;;;;;4.12;1.10;;;;;;;20.08;100.00;98854.06;4427627;32;20339;-74
2022/05/26 12:22:22;;;;;;;7.70;1.23;;;;;;;20.72;100.00;98843.75;4431709;32;20086;-75
2022/05/26 12:24:58;;;;;;;1.58;1.45;;;;;;;20.77;100.00;98849.87;4418668;32;20038;-72
2022/05/26 12:28:05;;;;;;;1.30;1.20;;;;;;;20.81;100.00;98852.78;4400251;32;20056;-73
2022/05/26 12:30:37;;;;;;;10.15;1.48;;;;;;;20.61;100.00;98857.72;4413080;32;20038;-72
2022/05/26 12:33:22;;;;;;;2.90;0.82;;;;;;;20.01;100.00;98872.06;4421078;32;20068;-72